Fernie, Canada
Current Conditions -  °F | °C
As of 3:42 AM on Thursday 27 Nov 2014 (Local Time) from CYXC Reporting Station
Light Rain Light Rain  
Wind Chill: 30°   Ceiling: 5000
Heat Index: 36°   Visibility: 12mi
Dew Point: 34°   Wind: 7mph
Humidity: 93%   Direction: 200°SSW
Pressure: 29.81"   Gusts: NA
Location:  49.51°N, 115.06°W
Report Text: CYXC 271042Z 20006KT 12SM -RA SCT020 OVC050 02/01 A2981 RMK SF3SC5 SLP123
Loading
Personal Weather Stations






























Interactive Weather Map New forecast layout! Learn more

10-Day Weather Forecast

Advertisements
Track Severe Weather on mobile